sensor_id;sensor_type;location;lat;lon;timestamp;P1;durP1;ratioP1;P2;durP2;ratioP2
61704;SDS011;47627;48.078;11.522;2023-12-22T00:00:58;1.65;;;0.55;;
61704;SDS011;47627;48.078;11.522;2023-12-22T00:03:23;1.63;;;0.40;;
61704;SDS011;47627;48.078;11.522;2023-12-22T00:05:48;3.05;;;0.60;;
61704;SDS011;47627;48.078;11.522;2023-12-22T00:08:14;2.17;;;0.65;;
61704;SDS011;47627;48.078;11.522;2023-12-22T00:10:39;1.08;;;0.63;;
61704;SDS011;47627;48.078;11.522;2023-12-22T00:13:05;2.30;;;0.60;;
61704;SDS011;47627;48.078;11.522;2023-12-22T00:15:30;1.65;;;0.57;;
61704;SDS011;47627;48.078;11.522;2023-12-22T00:17:55;1.42;;;0.70;;
61704;SDS011;47627;48.078;11.522;2023-12-22T00:20:20;2.05;;;0.60;;
61704;SDS011;47627;48.078;11.522;2023-12-22T00:22:46;2.75;;;0.57;;
61704;SDS011;47627;48.078;11.522;2023-12-22T00:25:11;0.90;;;0.43;;
61704;SDS011;47627;48.078;11.522;2023-12-22T00:27:36;0.93;;;0.35;;
61704;SDS011;47627;48.078;11.522;2023-12-22T00:30:02;1.13;;;0.35;;
61704;SDS011;47627;48.078;11.522;2023-12-22T00:32:27;0.75;;;0.30;;
61704;SDS011;47627;48.078;11.522;2023-12-22T00:34:52;0.82;;;0.30;;
61704;SDS011;47627;48.078;11.522;2023-12-22T00:37:17;1.45;;;0.40;;
61704;SDS011;47627;48.078;11.522;2023-12-22T00:39:43;1.40;;;0.40;;
61704;SDS011;47627;48.078;11.522;2023-12-22T00:42:08;0.52;;;0.40;;
61704;SDS011;47627;48.078;11.522;2023-12-22T00:44:33;0.38;;;0.30;;
61704;SDS011;47627;48.078;11.522;2023-12-22T00:46:58;0.30;;;0.30;;
61704;SDS011;47627;48.078;11.522;2023-12-22T00:49:23;0.38;;;0.38;;
61704;SDS011;47627;48.078;11.522;2023-12-22T00:51:49;0.93;;;0.50;;
61704;SDS011;47627;48.078;11.522;2023-12-22T00:54:14;2.50;;;0.47;;
61704;SDS011;47627;48.078;11.522;2023-12-22T00:56:39;0.60;;;0.43;;
61704;SDS011;47627;48.078;11.522;2023-12-22T00:59:05;1.05;;;0.50;;
61704;SDS011;47627;48.078;11.522;2023-12-22T01:01:30;0.63;;;0.45;;
61704;SDS011;47627;48.078;11.522;2023-12-22T01:03:55;1.13;;;0.50;;
61704;SDS011;47627;48.078;11.522;2023-12-22T01:06:20;0.73;;;0.57;;
61704;SDS011;47627;48.078;11.522;2023-12-22T01:08:45;0.68;;;0.50;;
61704;SDS011;47627;48.078;11.522;2023-12-22T01:11:15;0.80;;;0.50;;
61704;SDS011;47627;48.078;11.522;2023-12-22T01:13:40;2.30;;;0.68;;
61704;SDS011;47627;48.078;11.522;2023-12-22T01:16:05;1.52;;;0.68;;
61704;SDS011;47627;48.078;11.522;2023-12-22T01:18:30;4.07;;;1.10;;
61704;SDS011;47627;48.078;11.522;2023-12-22T01:20:56;3.20;;;1.10;;
61704;SDS011;47627;48.078;11.522;2023-12-22T01:23:21;24.33;;;6.32;;
61704;SDS011;47627;48.078;11.522;2023-12-22T01:25:47;21.23;;;5.57;;
61704;SDS011;47627;48.078;11.522;2023-12-22T01:28:12;32.97;;;11.10;;
61704;SDS011;47627;48.078;11.522;2023-12-22T01:30:37;69.03;;;24.35;;
61704;SDS011;47627;48.078;11.522;2023-12-22T01:33:03;52.72;;;19.55;;
61704;SDS011;47627;48.078;11.522;2023-12-22T01:35:28;23.55;;;9.13;;
61704;SDS011;47627;48.078;11.522;2023-12-22T01:37:54;11.98;;;4.97;;
61704;SDS011;47627;48.078;11.522;2023-12-22T01:40:19;8.45;;;5.68;;
61704;SDS011;47627;48.078;11.522;2023-12-22T01:42:44;4.78;;;3.70;;
61704;SDS011;47627;48.078;11.522;2023-12-22T01:45:11;5.47;;;3.22;;
61704;SDS011;47627;48.078;11.522;2023-12-22T01:47:36;5.80;;;3.60;;
61704;SDS011;47627;48.078;11.522;2023-12-22T01:50:02;24.10;;;12.90;;
61704;SDS011;47627;48.078;11.522;2023-12-22T01:52:27;6.95;;;4.60;;
61704;SDS011;47627;48.078;11.522;2023-12-22T01:54:53;3.63;;;2.22;;
61704;SDS011;47627;48.078;11.522;2023-12-22T01:57:20;1.70;;;1.20;;
61704;SDS011;47627;48.078;11.522;2023-12-22T01:59:46;1.45;;;0.90;;
61704;SDS011;47627;48.078;11.522;2023-12-22T02:02:11;1.30;;;1.10;;
61704;SDS011;47627;48.078;11.522;2023-12-22T02:04:36;1.25;;;1.00;;
61704;SDS011;47627;48.078;11.522;2023-12-22T02:07:02;2.58;;;0.60;;
61704;SDS011;47627;48.078;11.522;2023-12-22T02:09:28;0.52;;;0.52;;
61704;SDS011;47627;48.078;11.522;2023-12-22T02:11:53;1.85;;;0.50;;
61704;SDS011;47627;48.078;11.522;2023-12-22T02:14:18;0.52;;;0.52;;
61704;SDS011;47627;48.078;11.522;2023-12-22T02:19:40;0.98;;;0.50;;
61704;SDS011;47627;48.078;11.522;2023-12-22T02:22:07;0.70;;;0.60;;
61704;SDS011;47627;48.078;11.522;2023-12-22T02:24:33;0.73;;;0.60;;
61704;SDS011;47627;48.078;11.522;2023-12-22T02:27:03;0.50;;;0.50;;
61704;SDS011;47627;48.078;11.522;2023-12-22T02:29:30;0.50;;;0.50;;
61704;SDS011;47627;48.078;11.522;2023-12-22T02:31:56;1.10;;;0.50;;
61704;SDS011;47627;48.078;11.522;2023-12-22T02:34:23;0.60;;;0.60;;
61704;SDS011;47627;48.078;11.522;2023-12-22T02:36:48;1.20;;;0.68;;
61704;SDS011;47627;48.078;11.522;2023-12-22T02:39:14;0.88;;;0.88;;
61704;SDS011;47627;48.078;11.522;2023-12-22T02:41:40;0.50;;;0.50;;
61704;SDS011;47627;48.078;11.522;2023-12-22T02:44:06;0.77;;;0.77;;
61704;SDS011;47627;48.078;11.522;2023-12-22T02:46:31;0.43;;;0.43;;
61704;SDS011;47627;48.078;11.522;2023-12-22T02:48:56;0.60;;;0.60;;
61704;SDS011;47627;48.078;11.522;2023-12-22T02:51:22;0.50;;;0.50;;
61704;SDS011;47627;48.078;11.522;2023-12-22T02:53:47;0.50;;;0.45;;
61704;SDS011;47627;48.078;11.522;2023-12-22T02:56:12;0.93;;;0.60;;
61704;SDS011;47627;48.078;11.522;2023-12-22T02:58:37;0.40;;;0.40;;
61704;SDS011;47627;48.078;11.522;2023-12-22T03:01:03;0.50;;;0.50;;
61704;SDS011;47627;48.078;11.522;2023-12-22T03:03:28;0.40;;;0.40;;
61704;SDS011;47627;48.078;11.522;2023-12-22T03:05:53;0.90;;;0.40;;
61704;SDS011;47627;48.078;11.522;2023-12-22T03:08:19;0.60;;;0.55;;
61704;SDS011;47627;48.078;11.522;2023-12-22T03:10:44;1.98;;;0.68;;
61704;SDS011;47627;48.078;11.522;2023-12-22T03:13:09;1.48;;;0.60;;
61704;SDS011;47627;48.078;11.522;2023-12-22T03:15:34;1.05;;;0.65;;
61704;SDS011;47627;48.078;11.522;2023-12-22T03:17:59;1.55;;;0.80;;
61704;SDS011;47627;48.078;11.522;2023-12-22T03:20:25;2.67;;;0.93;;
61704;SDS011;47627;48.078;11.522;2023-12-22T03:22:51;1.33;;;0.70;;
61704;SDS011;47627;48.078;11.522;2023-12-22T03:25:16;2.03;;;1.00;;
61704;SDS011;47627;48.078;11.522;2023-12-22T03:27:41;1.63;;;0.88;;
61704;SDS011;47627;48.078;11.522;2023-12-22T03:30:06;2.08;;;0.82;;
61704;SDS011;47627;48.078;11.522;2023-12-22T03:32:32;3.42;;;1.20;;
61704;SDS011;47627;48.078;11.522;2023-12-22T03:34:57;2.85;;;1.15;;
61704;SDS011;47627;48.078;11.522;2023-12-22T03:37:22;3.08;;;1.00;;
61704;SDS011;47627;48.078;11.522;2023-12-22T03:39:47;1.50;;;0.73;;
61704;SDS011;47627;48.078;11.522;2023-12-22T03:42:12;2.05;;;0.80;;
61704;SDS011;47627;48.078;11.522;2023-12-22T03:44:38;3.40;;;1.08;;
61704;SDS011;47627;48.078;11.522;2023-12-22T03:47:03;2.30;;;0.90;;
61704;SDS011;47627;48.078;11.522;2023-12-22T03:49:28;4.72;;;1.02;;
61704;SDS011;47627;48.078;11.522;2023-12-22T03:51:53;2.92;;;1.00;;
61704;SDS011;47627;48.078;11.522;2023-12-22T03:54:19;2.20;;;0.80;;
61704;SDS011;47627;48.078;11.522;2023-12-22T03:56:44;3.38;;;0.90;;
61704;SDS011;47627;48.078;11.522;2023-12-22T03:59:09;1.25;;;0.73;;
61704;SDS011;47627;48.078;11.522;2023-12-22T04:01:34;2.63;;;0.80;;
61704;SDS011;47627;48.078;11.522;2023-12-22T04:04:00;1.77;;;0.50;;
61704;SDS011;47627;48.078;11.522;2023-12-22T04:06:25;2.85;;;0.88;;
61704;SDS011;47627;48.078;11.522;2023-12-22T04:08:50;1.02;;;0.60;;
61704;SDS011;47627;48.078;11.522;2023-12-22T04:11:15;2.08;;;0.70;;
61704;SDS011;47627;48.078;11.522;2023-12-22T04:13:40;2.90;;;0.82;;
61704;SDS011;47627;48.078;11.522;2023-12-22T04:16:06;4.53;;;1.05;;
61704;SDS011;47627;48.078;11.522;2023-12-22T04:18:31;4.93;;;1.00;;
61704;SDS011;47627;48.078;11.522;2023-12-22T04:20:57;2.67;;;0.90;;
61704;SDS011;47627;48.078;11.522;2023-12-22T04:23:22;3.42;;;0.70;;
61704;SDS011;47627;48.078;11.522;2023-12-22T04:25:47;5.07;;;0.80;;
61704;SDS011;47627;48.078;11.522;2023-12-22T04:28:13;2.58;;;0.98;;
61704;SDS011;47627;48.078;11.522;2023-12-22T04:30:38;5.90;;;1.25;;
61704;SDS011;47627;48.078;11.522;2023-12-22T04:33:03;5.18;;;0.90;;
61704;SDS011;47627;48.078;11.522;2023-12-22T04:35:28;5.72;;;0.98;;
61704;SDS011;47627;48.078;11.522;2023-12-22T04:37:54;3.97;;;0.80;;
61704;SDS011;47627;48.078;11.522;2023-12-22T04:40:19;4.35;;;1.10;;
61704;SDS011;47627;48.078;11.522;2023-12-22T04:42:44;2.35;;;0.70;;
61704;SDS011;47627;48.078;11.522;2023-12-22T04:45:10;4.03;;;0.82;;
61704;SDS011;47627;48.078;11.522;2023-12-22T04:47:35;4.93;;;0.88;;
61704;SDS011;47627;48.078;11.522;2023-12-22T04:50:00;2.20;;;1.00;;
61704;SDS011;47627;48.078;11.522;2023-12-22T04:52:25;5.28;;;1.00;;
61704;SDS011;47627;48.078;11.522;2023-12-22T04:54:51;4.88;;;1.30;;
61704;SDS011;47627;48.078;11.522;2023-12-22T04:57:16;4.25;;;0.77;;
61704;SDS011;47627;48.078;11.522;2023-12-22T04:59:41;2.92;;;1.00;;
61704;SDS011;47627;48.078;11.522;2023-12-22T05:02:06;4.38;;;1.50;;
61704;SDS011;47627;48.078;11.522;2023-12-22T05:04:32;3.78;;;1.15;;
61704;SDS011;47627;48.078;11.522;2023-12-22T05:06:57;2.15;;;0.90;;
61704;SDS011;47627;48.078;11.522;2023-12-22T05:09:22;4.75;;;1.17;;
61704;SDS011;47627;48.078;11.522;2023-12-22T05:11:50;4.07;;;0.90;;
61704;SDS011;47627;48.078;11.522;2023-12-22T05:14:15;4.18;;;1.00;;
61704;SDS011;47627;48.078;11.522;2023-12-22T05:16:40;3.97;;;0.80;;
61704;SDS011;47627;48.078;11.522;2023-12-22T05:19:05;2.53;;;0.75;;
61704;SDS011;47627;48.078;11.522;2023-12-22T05:21:31;2.78;;;0.98;;
61704;SDS011;47627;48.078;11.522;2023-12-22T05:23:56;5.10;;;0.98;;
61704;SDS011;47627;48.078;11.522;2023-12-22T05:26:21;3.88;;;0.80;;
61704;SDS011;47627;48.078;11.522;2023-12-22T05:28:47;4.03;;;1.00;;
61704;SDS011;47627;48.078;11.522;2023-12-22T05:31:14;3.38;;;1.00;;
61704;SDS011;47627;48.078;11.522;2023-12-22T05:33:39;4.78;;;1.30;;
61704;SDS011;47627;48.078;11.522;2023-12-22T05:36:05;2.17;;;0.90;;
61704;SDS011;47627;48.078;11.522;2023-12-22T05:38:30;5.07;;;1.15;;
61704;SDS011;47627;48.078;11.522;2023-12-22T05:40:56;3.05;;;0.85;;
61704;SDS011;47627;48.078;11.522;2023-12-22T05:43:21;2.92;;;0.93;;
61704;SDS011;47627;48.078;11.522;2023-12-22T05:45:46;4.53;;;1.02;;
61704;SDS011;47627;48.078;11.522;2023-12-22T05:48:11;2.03;;;0.85;;
61704;SDS011;47627;48.078;11.522;2023-12-22T05:50:37;3.75;;;0.90;;
61704;SDS011;47627;48.078;11.522;2023-12-22T05:53:02;4.32;;;1.17;;
61704;SDS011;47627;48.078;11.522;2023-12-22T05:55:27;2.75;;;1.00;;
61704;SDS011;47627;48.078;11.522;2023-12-22T05:57:53;2.67;;;0.88;;
61704;SDS011;47627;48.078;11.522;2023-12-22T06:00:19;4.78;;;1.35;;
61704;SDS011;47627;48.078;11.522;2023-12-22T06:02:44;5.43;;;1.20;;
61704;SDS011;47627;48.078;11.522;2023-12-22T06:05:09;2.08;;;1.00;;
61704;SDS011;47627;48.078;11.522;2023-12-22T06:07:34;4.25;;;0.95;;
61704;SDS011;47627;48.078;11.522;2023-12-22T06:10:00;3.80;;;1.38;;
61704;SDS011;47627;48.078;11.522;2023-12-22T06:12:25;11.35;;;4.72;;
61704;SDS011;47627;48.078;11.522;2023-12-22T06:14:50;10.25;;;3.45;;
61704;SDS011;47627;48.078;11.522;2023-12-22T06:17:16;16.05;;;7.20;;
61704;SDS011;47627;48.078;11.522;2023-12-22T06:19:41;10.65;;;5.03;;
61704;SDS011;47627;48.078;11.522;2023-12-22T06:22:06;6.60;;;4.38;;
61704;SDS011;47627;48.078;11.522;2023-12-22T06:24:31;4.95;;;1.85;;
61704;SDS011;47627;48.078;11.522;2023-12-22T06:26:56;5.47;;;1.48;;
61704;SDS011;47627;48.078;11.522;2023-12-22T06:29:22;1.92;;;0.90;;
61704;SDS011;47627;48.078;11.522;2023-12-22T06:31:48;2.92;;;1.05;;
61704;SDS011;47627;48.078;11.522;2023-12-22T06:34:16;4.90;;;1.30;;
61704;SDS011;47627;48.078;11.522;2023-12-22T06:36:41;5.57;;;1.50;;
61704;SDS011;47627;48.078;11.522;2023-12-22T06:39:07;3.78;;;1.10;;
61704;SDS011;47627;48.078;11.522;2023-12-22T06:41:33;4.80;;;1.25;;
61704;SDS011;47627;48.078;11.522;2023-12-22T06:43:58;6.10;;;3.08;;
61704;SDS011;47627;48.078;11.522;2023-12-22T06:46:26;4.60;;;1.48;;
61704;SDS011;47627;48.078;11.522;2023-12-22T06:48:53;4.43;;;1.20;;
61704;SDS011;47627;48.078;11.522;2023-12-22T06:51:22;5.90;;;1.73;;
61704;SDS011;47627;48.078;11.522;2023-12-22T06:53:48;7.85;;;2.60;;
61704;SDS011;47627;48.078;11.522;2023-12-22T06:58:42;2.90;;;1.30;;
61704;SDS011;47627;48.078;11.522;2023-12-22T07:01:07;3.97;;;1.50;;
61704;SDS011;47627;48.078;11.522;2023-12-22T07:03:32;3.72;;;1.10;;
61704;SDS011;47627;48.078;11.522;2023-12-22T07:05:57;3.67;;;1.50;;
61704;SDS011;47627;48.078;11.522;2023-12-22T07:08:23;5.10;;;2.00;;
61704;SDS011;47627;48.078;11.522;2023-12-22T07:10:48;4.65;;;1.30;;
61704;SDS011;47627;48.078;11.522;2023-12-22T07:13:13;7.63;;;2.65;;
61704;SDS011;47627;48.078;11.522;2023-12-22T07:15:38;11.80;;;5.30;;
61704;SDS011;47627;48.078;11.522;2023-12-22T07:18:04;11.50;;;1.92;;
61704;SDS011;47627;48.078;11.522;2023-12-22T07:20:30;5.63;;;1.48;;
61704;SDS011;47627;48.078;11.522;2023-12-22T07:22:55;5.13;;;1.45;;
61704;SDS011;47627;48.078;11.522;2023-12-22T07:25:21;7.20;;;1.75;;
61704;SDS011;47627;48.078;11.522;2023-12-22T07:27:47;5.80;;;2.33;;
61704;SDS011;47627;48.078;11.522;2023-12-22T07:30:12;8.18;;;1.40;;
61704;SDS011;47627;48.078;11.522;2023-12-22T07:32:41;5.20;;;1.60;;
61704;SDS011;47627;48.078;11.522;2023-12-22T07:35:06;5.75;;;1.40;;
61704;SDS011;47627;48.078;11.522;2023-12-22T07:37:34;5.78;;;1.42;;
61704;SDS011;47627;48.078;11.522;2023-12-22T07:40:00;5.88;;;1.70;;
61704;SDS011;47627;48.078;11.522;2023-12-22T07:42:25;7.88;;;1.80;;
61704;SDS011;47627;48.078;11.522;2023-12-22T07:44:50;5.75;;;1.55;;
61704;SDS011;47627;48.078;11.522;2023-12-22T07:47:15;9.05;;;1.50;;
61704;SDS011;47627;48.078;11.522;2023-12-22T07:49:41;8.55;;;1.60;;
61704;SDS011;47627;48.078;11.522;2023-12-22T07:52:06;6.82;;;1.40;;
61704;SDS011;47627;48.078;11.522;2023-12-22T07:54:32;5.82;;;1.60;;
61704;SDS011;47627;48.078;11.522;2023-12-22T07:56:57;7.63;;;1.85;;
61704;SDS011;47627;48.078;11.522;2023-12-22T07:59:22;5.25;;;1.60;;
61704;SDS011;47627;48.078;11.522;2023-12-22T08:01:47;5.18;;;1.90;;
61704;SDS011;47627;48.078;11.522;2023-12-22T08:04:12;8.38;;;1.58;;
61704;SDS011;47627;48.078;11.522;2023-12-22T08:06:38;10.90;;;4.57;;
61704;SDS011;47627;48.078;11.522;2023-12-22T08:09:03;8.70;;;1.73;;
61704;SDS011;47627;48.078;11.522;2023-12-22T08:11:28;7.38;;;1.52;;
61704;SDS011;47627;48.078;11.522;2023-12-22T08:13:54;4.80;;;1.80;;
61704;SDS011;47627;48.078;11.522;2023-12-22T08:16:19;7.57;;;1.92;;
61704;SDS011;47627;48.078;11.522;2023-12-22T08:18:44;4.57;;;1.10;;
61704;SDS011;47627;48.078;11.522;2023-12-22T08:21:09;6.70;;;2.63;;
61704;SDS011;47627;48.078;11.522;2023-12-22T08:23:35;8.95;;;1.67;;
61704;SDS011;47627;48.078;11.522;2023-12-22T08:26:00;5.25;;;2.30;;
61704;SDS011;47627;48.078;11.522;2023-12-22T08:28:25;7.13;;;1.88;;
61704;SDS011;47627;48.078;11.522;2023-12-22T08:30:51;5.60;;;1.67;;
61704;SDS011;47627;48.078;11.522;2023-12-22T08:33:17;9.85;;;2.03;;
61704;SDS011;47627;48.078;11.522;2023-12-22T08:35:42;5.55;;;1.23;;
61704;SDS011;47627;48.078;11.522;2023-12-22T08:38:07;6.10;;;1.80;;
61704;SDS011;47627;48.078;11.522;2023-12-22T08:40:33;2.97;;;1.40;;
61704;SDS011;47627;48.078;11.522;2023-12-22T08:42:58;4.65;;;1.27;;
61704;SDS011;47627;48.078;11.522;2023-12-22T08:45:26;4.13;;;1.08;;
61704;SDS011;47627;48.078;11.522;2023-12-22T08:47:54;3.35;;;1.00;;
61704;SDS011;47627;48.078;11.522;2023-12-22T08:50:19;4.15;;;1.30;;
61704;SDS011;47627;48.078;11.522;2023-12-22T08:52:44;3.47;;;1.10;;
61704;SDS011;47627;48.078;11.522;2023-12-22T08:55:09;5.30;;;1.35;;
61704;SDS011;47627;48.078;11.522;2023-12-22T08:57:34;7.40;;;1.33;;
61704;SDS011;47627;48.078;11.522;2023-12-22T09:00:00;5.40;;;1.30;;
61704;SDS011;47627;48.078;11.522;2023-12-22T09:02:25;7.43;;;1.60;;
61704;SDS011;47627;48.078;11.522;2023-12-22T09:04:51;5.45;;;1.40;;
61704;SDS011;47627;48.078;11.522;2023-12-22T09:07:16;6.30;;;1.52;;
61704;SDS011;47627;48.078;11.522;2023-12-22T09:09:42;4.50;;;1.50;;
61704;SDS011;47627;48.078;11.522;2023-12-22T09:12:07;4.68;;;1.10;;
61704;SDS011;47627;48.078;11.522;2023-12-22T09:14:32;6.20;;;1.77;;
61704;SDS011;47627;48.078;11.522;2023-12-22T09:16:57;5.57;;;1.60;;
61704;SDS011;47627;48.078;11.522;2023-12-22T09:19:22;5.80;;;1.90;;
61704;SDS011;47627;48.078;11.522;2023-12-22T09:21:48;9.38;;;1.75;;
61704;SDS011;47627;48.078;11.522;2023-12-22T09:24:13;6.95;;;1.58;;
61704;SDS011;47627;48.078;11.522;2023-12-22T09:26:39;5.18;;;1.50;;
61704;SDS011;47627;48.078;11.522;2023-12-22T09:29:05;4.70;;;1.80;;
61704;SDS011;47627;48.078;11.522;2023-12-22T09:31:30;6.75;;;1.73;;
61704;SDS011;47627;48.078;11.522;2023-12-22T09:33:55;5.43;;;1.70;;
61704;SDS011;47627;48.078;11.522;2023-12-22T09:36:20;7.63;;;1.88;;
61704;SDS011;47627;48.078;11.522;2023-12-22T09:38:46;4.05;;;1.40;;
61704;SDS011;47627;48.078;11.522;2023-12-22T09:41:11;6.03;;;1.63;;
61704;SDS011;47627;48.078;11.522;2023-12-22T09:43:36;5.63;;;1.00;;
61704;SDS011;47627;48.078;11.522;2023-12-22T09:46:02;4.82;;;1.25;;
61704;SDS011;47627;48.078;11.522;2023-12-22T09:48:28;3.05;;;1.30;;
61704;SDS011;47627;48.078;11.522;2023-12-22T09:50:54;4.75;;;1.05;;
61704;SDS011;47627;48.078;11.522;2023-12-22T09:53:20;5.63;;;1.27;;
61704;SDS011;47627;48.078;11.522;2023-12-22T09:55:45;2.75;;;1.10;;
61704;SDS011;47627;48.078;11.522;2023-12-22T09:58:12;2.15;;;0.90;;
61704;SDS011;47627;48.078;11.522;2023-12-22T10:00:37;3.28;;;0.90;;
61704;SDS011;47627;48.078;11.522;2023-12-22T10:03:06;3.47;;;0.90;;
61704;SDS011;47627;48.078;11.522;2023-12-22T10:05:32;1.15;;;0.70;;
61704;SDS011;47627;48.078;11.522;2023-12-22T10:07:57;2.95;;;0.90;;
61704;SDS011;47627;48.078;11.522;2023-12-22T10:10:24;1.50;;;0.73;;
61704;SDS011;47627;48.078;11.522;2023-12-22T10:12:50;1.73;;;0.60;;
61704;SDS011;47627;48.078;11.522;2023-12-22T10:15:16;1.20;;;0.70;;
61704;SDS011;47627;48.078;11.522;2023-12-22T10:17:43;2.35;;;0.63;;
61704;SDS011;47627;48.078;11.522;2023-12-22T10:20:09;0.60;;;0.60;;
61704;SDS011;47627;48.078;11.522;2023-12-22T10:22:34;3.88;;;0.57;;
61704;SDS011;47627;48.078;11.522;2023-12-22T10:25:00;2.35;;;0.63;;
61704;SDS011;47627;48.078;11.522;2023-12-22T10:27:25;1.17;;;0.60;;
61704;SDS011;47627;48.078;11.522;2023-12-22T10:29:54;0.57;;;0.45;;
61704;SDS011;47627;48.078;11.522;2023-12-22T10:32:19;0.60;;;0.50;;
61704;SDS011;47627;48.078;11.522;2023-12-22T10:34:45;2.63;;;0.70;;
61704;SDS011;47627;48.078;11.522;2023-12-22T10:37:10;2.20;;;0.70;;
61704;SDS011;47627;48.078;11.522;2023-12-22T10:39:38;1.67;;;0.70;;
61704;SDS011;47627;48.078;11.522;2023-12-22T10:42:03;2.42;;;0.82;;
61704;SDS011;47627;48.078;11.522;2023-12-22T10:44:28;1.50;;;0.90;;
61704;SDS011;47627;48.078;11.522;2023-12-22T10:46:54;2.15;;;1.02;;
61704;SDS011;47627;48.078;11.522;2023-12-22T10:49:20;5.75;;;1.10;;
61704;SDS011;47627;48.078;11.522;2023-12-22T10:51:46;5.82;;;1.15;;
61704;SDS011;47627;48.078;11.522;2023-12-22T10:54:11;5.13;;;1.63;;
61704;SDS011;47627;48.078;11.522;2023-12-22T10:56:36;5.13;;;1.92;;
61704;SDS011;47627;48.078;11.522;2023-12-22T10:59:02;9.23;;;1.80;;
61704;SDS011;47627;48.078;11.522;2023-12-22T11:01:28;3.75;;;1.30;;
61704;SDS011;47627;48.078;11.522;2023-12-22T11:04:03;3.53;;;1.42;;
61704;SDS011;47627;48.078;11.522;2023-12-22T11:06:30;8.27;;;1.50;;
61704;SDS011;47627;48.078;11.522;2023-12-22T11:08:57;5.68;;;1.38;;
61704;SDS011;47627;48.078;11.522;2023-12-22T11:11:44;8.40;;;1.67;;
61704;SDS011;47627;48.078;11.522;2023-12-22T11:14:08;7.13;;;1.10;;
61704;SDS011;47627;48.078;11.522;2023-12-22T11:16:34;4.43;;;1.40;;
61704;SDS011;47627;48.078;11.522;2023-12-22T11:19:00;5.15;;;1.77;;
61704;SDS011;47627;48.078;11.522;2023-12-22T11:21:26;4.40;;;1.30;;
61704;SDS011;47627;48.078;11.522;2023-12-22T11:23:52;5.03;;;1.55;;
61704;SDS011;47627;48.078;11.522;2023-12-22T11:26:18;5.43;;;1.30;;
61704;SDS011;47627;48.078;11.522;2023-12-22T11:28:47;3.88;;;1.25;;
61704;SDS011;47627;48.078;11.522;2023-12-22T11:31:13;4.93;;;1.58;;
61704;SDS011;47627;48.078;11.522;2023-12-22T11:33:45;7.68;;;1.40;;
61704;SDS011;47627;48.078;11.522;2023-12-22T11:36:11;2.60;;;1.13;;
61704;SDS011;47627;48.078;11.522;2023-12-22T11:38:37;4.68;;;1.20;;
61704;SDS011;47627;48.078;11.522;2023-12-22T11:41:02;2.53;;;1.15;;
61704;SDS011;47627;48.078;11.522;2023-12-22T11:43:28;4.45;;;1.10;;
61704;SDS011;47627;48.078;11.522;2023-12-22T11:45:54;5.53;;;1.30;;
61704;SDS011;47627;48.078;11.522;2023-12-22T11:48:19;8.52;;;2.03;;
61704;SDS011;47627;48.078;11.522;2023-12-22T11:50:46;5.05;;;1.30;;
61704;SDS011;47627;48.078;11.522;2023-12-22T11:53:24;3.72;;;1.10;;
61704;SDS011;47627;48.078;11.522;2023-12-22T11:56:02;4.28;;;1.40;;
61704;SDS011;47627;48.078;11.522;2023-12-22T11:58:32;6.22;;;1.20;;
61704;SDS011;47627;48.078;11.522;2023-12-22T12:00:59;4.95;;;1.30;;
61704;SDS011;47627;48.078;11.522;2023-12-22T12:03:25;4.32;;;1.33;;
61704;SDS011;47627;48.078;11.522;2023-12-22T12:06:09;5.82;;;1.45;;
61704;SDS011;47627;48.078;11.522;2023-12-22T12:08:34;5.25;;;1.20;;
61704;SDS011;47627;48.078;11.522;2023-12-22T12:11:00;8.48;;;1.45;;
61704;SDS011;47627;48.078;11.522;2023-12-22T12:13:28;6.80;;;1.33;;
61704;SDS011;47627;48.078;11.522;2023-12-22T12:15:56;5.07;;;1.58;;
61704;SDS011;47627;48.078;11.522;2023-12-22T12:18:24;5.72;;;1.27;;
61704;SDS011;47627;48.078;11.522;2023-12-22T12:20:52;6.38;;;1.65;;
61704;SDS011;47627;48.078;11.522;2023-12-22T12:23:17;5.10;;;1.60;;
61704;SDS011;47627;48.078;11.522;2023-12-22T12:25:42;3.90;;;1.40;;
61704;SDS011;47627;48.078;11.522;2023-12-22T12:28:08;8.75;;;1.63;;
61704;SDS011;47627;48.078;11.522;2023-12-22T12:30:34;8.20;;;2.10;;
61704;SDS011;47627;48.078;11.522;2023-12-22T12:33:09;6.22;;;1.85;;
61704;SDS011;47627;48.078;11.522;2023-12-22T12:35:35;5.82;;;1.77;;
61704;SDS011;47627;48.078;11.522;2023-12-22T12:38:00;5.63;;;1.50;;
61704;SDS011;47627;48.078;11.522;2023-12-22T12:40:27;7.68;;;1.60;;
61704;SDS011;47627;48.078;11.522;2023-12-22T12:42:54;5.18;;;1.70;;
61704;SDS011;47627;48.078;11.522;2023-12-22T12:45:22;7.32;;;2.20;;
61704;SDS011;47627;48.078;11.522;2023-12-22T12:47:58;6.60;;;1.40;;
61704;SDS011;47627;48.078;11.522;2023-12-22T12:50:23;7.65;;;2.10;;
61704;SDS011;47627;48.078;11.522;2023-12-22T12:52:49;6.13;;;1.92;;
61704;SDS011;47627;48.078;11.522;2023-12-22T12:55:16;6.68;;;1.75;;
61704;SDS011;47627;48.078;11.522;2023-12-22T12:57:43;3.35;;;1.50;;
61704;SDS011;47627;48.078;11.522;2023-12-22T13:00:08;4.95;;;1.45;;
61704;SDS011;47627;48.078;11.522;2023-12-22T13:02:34;5.68;;;1.73;;
61704;SDS011;47627;48.078;11.522;2023-12-22T13:05:00;2.78;;;1.30;;
61704;SDS011;47627;48.078;11.522;2023-12-22T13:07:29;4.53;;;1.00;;
61704;SDS011;47627;48.078;11.522;2023-12-22T13:09:54;1.88;;;1.00;;
61704;SDS011;47627;48.078;11.522;2023-12-22T13:12:22;3.60;;;1.23;;
61704;SDS011;47627;48.078;11.522;2023-12-22T13:14:47;3.40;;;1.17;;
61704;SDS011;47627;48.078;11.522;2023-12-22T13:17:13;6.25;;;1.02;;
61704;SDS011;47627;48.078;11.522;2023-12-22T13:19:38;3.92;;;1.20;;
61704;SDS011;47627;48.078;11.522;2023-12-22T13:22:04;5.45;;;1.30;;
61704;SDS011;47627;48.078;11.522;2023-12-22T13:24:30;6.18;;;1.90;;
61704;SDS011;47627;48.078;11.522;2023-12-22T13:26:59;7.80;;;1.42;;
61704;SDS011;47627;48.078;11.522;2023-12-22T13:29:26;4.00;;;1.60;;
61704;SDS011;47627;48.078;11.522;2023-12-22T13:31:52;5.30;;;1.23;;
61704;SDS011;47627;48.078;11.522;2023-12-22T13:34:17;5.32;;;1.63;;
61704;SDS011;47627;48.078;11.522;2023-12-22T13:36:42;6.15;;;1.40;;
61704;SDS011;47627;48.078;11.522;2023-12-22T13:39:08;6.90;;;1.40;;
61704;SDS011;47627;48.078;11.522;2023-12-22T13:41:34;5.80;;;1.38;;
61704;SDS011;47627;48.078;11.522;2023-12-22T13:44:02;4.82;;;1.50;;
61704;SDS011;47627;48.078;11.522;2023-12-22T13:46:27;3.80;;;1.27;;
61704;SDS011;47627;48.078;11.522;2023-12-22T13:48:53;5.07;;;1.40;;
61704;SDS011;47627;48.078;11.522;2023-12-22T13:51:19;5.05;;;1.48;;
61704;SDS011;47627;48.078;11.522;2023-12-22T13:53:47;6.03;;;1.50;;
61704;SDS011;47627;48.078;11.522;2023-12-22T13:56:13;5.75;;;1.40;;
61704;SDS011;47627;48.078;11.522;2023-12-22T13:58:45;5.70;;;1.13;;
61704;SDS011;47627;48.078;11.522;2023-12-22T14:01:14;5.03;;;1.40;;
61704;SDS011;47627;48.078;11.522;2023-12-22T14:03:43;4.18;;;0.98;;
61704;SDS011;47627;48.078;11.522;2023-12-22T14:06:08;8.48;;;1.55;;
61704;SDS011;47627;48.078;11.522;2023-12-22T14:08:40;5.70;;;1.63;;
61704;SDS011;47627;48.078;11.522;2023-12-22T14:11:08;4.05;;;1.02;;
61704;SDS011;47627;48.078;11.522;2023-12-22T14:13:34;2.95;;;1.10;;
61704;SDS011;47627;48.078;11.522;2023-12-22T14:16:05;5.32;;;1.25;;
61704;SDS011;47627;48.078;11.522;2023-12-22T14:18:30;3.17;;;1.10;;
61704;SDS011;47627;48.078;11.522;2023-12-22T14:20:56;2.28;;;0.80;;
61704;SDS011;47627;48.078;11.522;2023-12-22T14:23:21;2.67;;;1.10;;
61704;SDS011;47627;48.078;11.522;2023-12-22T14:25:46;2.67;;;1.00;;
61704;SDS011;47627;48.078;11.522;2023-12-22T14:28:12;3.45;;;1.55;;
61704;SDS011;47627;48.078;11.522;2023-12-22T14:30:37;2.70;;;1.10;;